METAR* REPORTS - Stations within 60 miles

(*Meteorological Terminal Aviation Routine weather report)

 

KRDG - Reading, Pennsylvania, USA
Distance from station: SE 19mi, 31km
Updated: Tue, 23-Jul-2024 11:54am EDT
Mostly Cloudy
Mostly Cloudy
 Wind from W
Wind: W 8 mph , 13 km/h
Temperature: 77°F , 25°C
Dew Point: 66°F , 19°C
Humidity: 69%
Barometer: 30.05 inHg , 1017.6 hPa
Clouds: Mostly Cloudy
Visibility: 10 miles , 16 km
Cloud details: Mostly Cloudy 2300 ft
Mostly Cloudy 3400 ft
2024/07/23 15:54 KRDG 231554Z 27007KT 10SM BKN023 BKN034 25/19 A3005 RMK AO2 SLP178 T02500194
KLNS - Lancaster, Pennsylvania, USA
Distance from station: S 33mi, 53km
Updated: Tue, 23-Jul-2024 12:23pm EDT
Mostly Cloudy
Mostly Cloudy
 Wind from NNW
Wind: NNW 8 mph , 13 km/h
Temperature: 79°F , 26°C
Dew Point: 66°F , 19°C
Humidity: 65%
Barometer: 30.07 inHg , 1018.3 hPa
Clouds: Mostly Cloudy
Visibility: 10 miles , 16 km
Cloud details: Mostly Cloudy 2700 ft
2024/07/23 16:23 KLNS 231623Z 34007KT 10SM BKN027 26/19 A3007 RMK AO2 T02610194
 
KSEG - Selinsgrove, Pennsylvania, USA
Distance from station: WNW 39mi, 62km
Updated: Tue, 23-Jul-2024 11:53am EDT
Mostly Cloudy
Mostly Cloudy
 Wind from varies
Wind: varies 3 mph , 6 km/h
Temperature: 81°F , 27°C
Heat Index: 83°F , 28°C
Dew Point: 66°F , 19°C
Humidity: 62%
Barometer: 30.07 inHg , 1018.3 hPa
Clouds: Mostly Cloudy
Visibility: 10 miles , 16 km
Cloud details: Mostly Cloudy 3100 ft
Mostly Cloudy 3900 ft
2024/07/23 15:53 KSEG 231553Z AUTO VRB03KT 10SM BKN031 BKN039 27/19 A3007 RMK AO2 SLP179 T02670194
KABE - Allentown, Pennsylvania, USA
Distance from station: E 39mi, 63km
Updated: Tue, 23-Jul-2024 11:58am EDT
Mostly Cloudy
Mostly Cloudy
 Wind from W
Wind: W 7 mph , 11 km/h
Temperature: 75°F , 24°C
Dew Point: 70°F , 21°C
Humidity: 83%
Barometer: 30.04 inHg , 1017.3 hPa
Clouds: Mostly Cloudy
Visibility: 10 miles , 16 km
Cloud details: Few Clouds 1500 ft
Mostly Cloudy 3500 ft
Mostly Cloudy 4700 ft
2024/07/23 15:58 KABE 231558Z 27006KT 10SM FEW015 BKN035 BKN047 24/21 A3004 RMK AO2 T02440206 $
 
KMDT - Middletown, Pennsylvania, USA
Distance from station: SW 40mi, 65km
Updated: Tue, 23-Jul-2024 11:56am EDT
Mostly Cloudy
Mostly Cloudy
 Wind from WNW
Wind: WNW 9 mph , 15 km/h
Temperature: 81°F , 27°C
Heat Index: 82°F , 28°C
Dew Point: 63°F , 17°C
Humidity: 54%
Barometer: 30.06 inHg , 1017.9 hPa
Clouds: Mostly Cloudy
Visibility: 10 miles , 16 km
Cloud details: Few Clouds 2800 ft
Few Clouds 16000 ft
Mostly Cloudy 25000 ft
2024/07/23 15:56 KMDT 231556Z 30008KT 10SM FEW028 FEW160 BKN250 27/17 A3006 RMK AO2 SLP178 T02720172
KPTW - Pottstown, Pennsylvania, USA
Distance from station: SE 42mi, 67km
Updated: Tue, 23-Jul-2024 11:54am EDT
Overcast
Overcast
 Wind from varies
Wind: varies 5 mph , 7 km/h
Temperature: 75°F , 24°C
Dew Point: 66°F , 19°C
Humidity: 74%
Barometer: 30.08 inHg , 1018.6 hPa
Clouds: Overcast
Visibility: 10 miles , 16 km
Cloud details: Overcast 2300 ft
2024/07/23 15:54 KPTW 231554Z AUTO VRB04KT 10SM OVC023 24/19 A3008 RMK AO2 SLP180 T02390194
 
KCXY - Harrisburg, Pennsylvania, USA
Distance from station: SW 43mi, 69km
Updated: Tue, 23-Jul-2024 11:56am EDT
Few Clouds
Few Clouds
 Wind from NNW
Wind: NNW 8 mph , 13 km/h
Temperature: 82°F , 28°C
Heat Index: 83°F , 28°C
Dew Point: 63°F , 17°C
Humidity: 51%
Barometer: 30.07 inHg , 1018.3 hPa
Clouds: Few Clouds
Visibility: 10 miles , 16 km
Cloud details: Few Clouds 2900 ft
2024/07/23 15:56 KCXY 231556Z 34007KT 10SM R08/6000FT FEW029 28/17 A3007 RMK AO2 SLP182 T02780167
KUKT - Quakertown Arp, Pennsylvania, USA
Distance from station: ESE 44mi, 70km
Updated: Tue, 23-Jul-2024 12:35pm EDT
Overcast
Overcast
 Wind from varies
Wind: varies 6 mph , 9 km/h
Temperature: 77°F , 25°C
Dew Point: 70°F , 21°C
Humidity: 79%
Barometer: 30.07 inHg , 1018.3 hPa
Clouds: Overcast
Visibility: 10 miles , 16 km
Cloud details: Mostly Cloudy 2100 ft
Mostly Cloudy 3000 ft
Overcast 3700 ft
2024/07/23 16:35 KUKT 231635Z AUTO VRB05KT 10SM BKN021 BKN030 OVC037 25/21 A3007 RMK AO2
 
KMQS - Coatesville, Pennsylvania, USA
Distance from station: SSE 45mi, 72km
Updated: Tue, 23-Jul-2024 12:35pm EDT
Mostly Cloudy
Mostly Cloudy
 Wind from WNW
Wind: WNW 12 mph , 19 km/h
Temperature: 79°F , 26°C
Dew Point: 72°F , 22°C
Humidity: 79%
Barometer: 30.09 inHg , 1019 hPa
Clouds: Mostly Cloudy
Visibility: 10 miles , 16 km
Cloud details: Mostly Cloudy 2900 ft
Mostly Cloudy 10000 ft
2024/07/23 16:35 KMQS 231635Z AUTO 30010KT 10SM BKN029 BKN100 26/22 A3009 RMK AO2
KMPO - Mt. Pocono, Pennsylvania, USA
Distance from station: NE 57mi, 92km
Updated: Tue, 23-Jul-2024 11:53am EDT
Overcast
Overcast
 Wind from NNW
Wind: NNW 8 mph , 13 km/h
Temperature: 70°F , 21°C
Dew Point: 64°F , 18°C
Humidity: 83%
Barometer: 30.09 inHg , 1019 hPa
Clouds: Overcast
Visibility: 10 miles , 16 km
Cloud details: Few Clouds 1400 ft
Mostly Cloudy 2200 ft
Overcast 3800 ft
2024/07/23 15:53 KMPO 231553Z AUTO 33007KT 10SM FEW014 BKN022 OVC038 21/18 A3009 RMK AO2 RAB41E53 SLP178 P0000 T02110183
 
KAVP - Avoca/Wilkes B., Pennsylvania, USA
Distance from station: NNE 58mi, 93km
Updated: Tue, 23-Jul-2024 12:38pm EDT
Overcast
Overcast
 Wind from ENE
Wind: ENE 8 mph , 13 km/h
Temperature: 75°F , 24°C
Dew Point: 66°F , 19°C
Humidity: 74%
Barometer: 30.08 inHg , 1018.6 hPa
Clouds: Overcast
Visibility: 10 miles , 16 km
Cloud details: Few Clouds 1400 ft
Mostly Cloudy 2000 ft
Overcast 5000 ft
2024/07/23 16:38 KAVP 231638Z AUTO 06007KT 10SM FEW014 BKN020 OVC050 24/19 A3008 RMK AO2 T02440194
KTHV - York, Pennsylvania, USA
Distance from station: SW 59mi, 94km
Updated: Tue, 23-Jul-2024 11:53am EDT
Few Clouds
Few Clouds
 Wind from NNW
Wind: NNW 6 mph , 9 km/h
Temperature: 81°F , 27°C
Heat Index: 83°F , 28°C
Dew Point: 64°F , 18°C
Humidity: 58%
Barometer: 30.08 inHg , 1018.6 hPa
Clouds: Few Clouds
Visibility: 10 miles , 16 km
Cloud details: Few Clouds 3100 ft
2024/07/23 15:53 KTHV 231553Z AUTO 33005KT 10SM FEW031 27/18 A3008 RMK AO2 SLP183 T02670183 $
 
KDYL - Doylestown, Pennsylvania, USA
Distance from station: ESE 59mi, 95km
Updated: Tue, 23-Jul-2024 11:54am EDT
Overcast
Overcast
 Wind from W
Wind: W 3 mph , 6 km/h
Temperature: 79°F , 26°C
Dew Point: 70°F , 21°C
Humidity: 74%
Barometer: 30.04 inHg , 1017.3 hPa
Clouds: Overcast
Visibility: 10 miles , 16 km
Cloud details: Few Clouds 1900 ft
Mostly Cloudy 3300 ft
Overcast 4300 ft
2024/07/23 15:54 KDYL 231554Z AUTO 26003KT 10SM FEW019 BKN033 OVC043 26/21 A3004 RMK AO2 SLP167 T02560211 $
KIPT - Williamsport, Pennsylvania, USA
Distance from station: NW 60mi, 96km
Updated: Tue, 23-Jul-2024 11:54am EDT
Mostly Cloudy
Mostly Cloudy
 Wind from SSW
Wind: SSW 6 mph , 9 km/h
Temperature: 79°F , 26°C
Dew Point: 66°F , 19°C
Humidity: 65%
Barometer: 30.06 inHg , 1017.9 hPa
Clouds: Mostly Cloudy
Visibility: 10 miles , 16 km
Cloud details: Few Clouds 3600 ft
Partly Cloudy 4900 ft
Mostly Cloudy 6000 ft
2024/07/23 15:54 KIPT 231554Z 21005KT 10SM FEW036 SCT049 BKN060 26/19 A3006 RMK AO2 SLP174 T02610189